createdAt,value
2023-01-01T00:00:48.925Z,3.80
2023-01-01T00:05:52.814Z,4.00
2023-01-01T00:11:01.661Z,7.73
2023-01-01T00:16:06.461Z,2.83
2023-01-01T00:21:13.643Z,4.63
2023-01-01T00:26:19.444Z,2.30
2023-01-01T00:31:23.635Z,1.83
2023-01-01T00:36:28.679Z,1.50
2023-01-01T00:41:34.565Z,1.70
2023-01-01T00:46:37.980Z,1.93
2023-01-01T00:51:41.676Z,2.20
2023-01-01T00:56:47.093Z,1.77
2023-01-01T01:01:51.172Z,1.60
2023-01-01T01:06:55.178Z,1.50
2023-01-01T01:12:17.267Z,1.53
2023-01-01T01:17:22.643Z,1.93
2023-01-01T01:22:28.979Z,1.80
2023-01-01T01:27:34.621Z,2.30
2023-01-01T01:32:38.312Z,2.20
2023-01-01T01:37:42.033Z,2.30
2023-01-01T01:42:49.124Z,2.50
2023-01-01T01:47:54.465Z,2.57
2023-01-01T01:53:08.813Z,2.37
2023-01-01T01:58:15.400Z,2.50
2023-01-01T02:03:20.426Z,2.30
2023-01-01T02:08:25.324Z,2.20
2023-01-01T02:13:30.671Z,2.60
2023-01-01T02:18:37.852Z,2.10
2023-01-01T02:23:50.682Z,2.07
2023-01-01T02:29:02.310Z,2.37
2023-01-01T02:34:07.770Z,2.40
2023-01-01T02:39:12.245Z,2.40
2023-01-01T02:44:18.102Z,2.30
2023-01-01T02:49:21.758Z,2.37
2023-01-01T02:54:28.024Z,17.77
2023-01-01T02:59:54.146Z,15.97
2023-01-01T03:05:05.237Z,19.10
2023-01-01T03:10:16.082Z,15.63
2023-01-01T03:15:29.861Z,15.50
2023-01-01T03:20:34.974Z,14.23
2023-01-01T03:25:42.092Z,14.40
2023-01-01T03:30:48.510Z,14.80
2023-01-01T03:35:55.239Z,13.57
2023-01-01T03:41:01.856Z,13.00
2023-01-01T03:46:08.741Z,10.10
2023-01-01T03:51:16.864Z,9.50
2023-01-01T03:56:24.532Z,8.40
2023-01-01T04:01:32.516Z,8.03
2023-01-01T04:06:36.077Z,9.87
2023-01-01T04:12:00.017Z,7.10
2023-01-01T04:17:08.826Z,7.87
2023-01-01T04:22:12.691Z,7.57
2023-01-01T04:27:16.088Z,8.80
2023-01-01T04:32:21.229Z,7.80
2023-01-01T04:37:24.897Z,7.67
2023-01-01T04:42:28.183Z,4.20
2023-01-01T04:47:33.361Z,4.90
2023-01-01T04:52:36.802Z,4.60
2023-01-01T04:57:40.538Z,3.97
2023-01-01T05:02:45.505Z,3.13
2023-01-01T05:07:49.019Z,3.70
2023-01-01T05:12:53.437Z,3.20
2023-01-01T05:17:58.546Z,3.27
2023-01-01T05:23:02.217Z,4.60
2023-01-01T05:28:05.916Z,5.63
2023-01-01T05:33:10.874Z,6.40
2023-01-01T05:38:14.198Z,7.07
2023-01-01T05:43:17.680Z,5.60
2023-01-01T05:48:22.749Z,3.10
2023-01-01T05:53:26.170Z,5.30
2023-01-01T05:58:30.182Z,4.47
2023-01-01T06:03:37.669Z,4.20
2023-01-01T06:08:41.189Z,4.40
2023-01-01T06:13:44.799Z,4.20
2023-01-01T06:18:50.004Z,3.80
2023-01-01T06:23:53.658Z,4.50
2023-01-01T06:28:57.756Z,3.97
2023-01-01T06:34:03.036Z,4.60
2023-01-01T06:39:06.650Z,4.20
2023-01-01T06:44:10.111Z,3.93
2023-01-01T06:49:15.339Z,2.10
2023-01-01T06:54:18.950Z,3.10
2023-01-01T06:59:22.351Z,2.07
2023-01-01T07:04:27.475Z,2.60
2023-01-01T07:09:30.849Z,2.10
2023-01-01T07:14:34.661Z,2.13
2023-01-01T07:19:39.552Z,2.00
2023-01-01T07:24:43.106Z,2.00
2023-01-01T07:29:46.699Z,1.90
2023-01-01T07:34:51.715Z,2.80
2023-01-01T07:39:55.281Z,2.50
2023-01-01T07:44:58.829Z,2.63
2023-01-01T07:50:03.811Z,2.13
2023-01-01T07:55:07.938Z,2.30
2023-01-01T08:00:12.056Z,2.27
2023-01-01T08:05:26.616Z,2.07
2023-01-01T08:10:30.530Z,2.13
2023-01-01T08:15:34.147Z,2.60
2023-01-01T08:20:39.721Z,2.10
2023-01-01T08:25:43.220Z,1.90
2023-01-01T08:30:46.869Z,1.90
2023-01-01T08:35:54.390Z,2.63
2023-01-01T08:40:58.497Z,2.37
2023-01-01T08:46:02.133Z,1.80
2023-01-01T08:51:07.406Z,2.10
2023-01-01T08:56:12.029Z,1.83
2023-01-01T09:01:15.579Z,2.20
2023-01-01T09:06:22.141Z,1.87
2023-01-01T09:11:26.805Z,2.40
2023-01-01T09:16:30.502Z,2.17
2023-01-01T09:21:35.768Z,2.40
2023-01-01T09:26:39.330Z,2.00
2023-01-01T09:31:43.110Z,2.57
2023-01-01T09:36:48.172Z,2.10
2023-01-01T09:41:59.067Z,1.80
2023-01-01T09:47:03.947Z,1.77
2023-01-01T09:52:12.593Z,2.00
2023-01-01T09:57:20.062Z,2.30
2023-01-01T10:02:33.429Z,2.07
2023-01-01T10:07:42.985Z,2.73
2023-01-01T10:12:50.234Z,2.40
2023-01-01T10:17:56.162Z,3.20
2023-01-01T10:23:02.453Z,2.37
2023-01-01T10:28:07.118Z,2.70
2023-01-01T10:33:12.920Z,2.87
2023-01-01T10:38:22.785Z,3.30
2023-01-01T10:43:26.248Z,2.60
2023-01-01T10:48:31.471Z,3.03
2023-01-01T10:53:38.627Z,2.20
2023-01-01T10:58:44.210Z,1.87
2023-01-01T11:03:57.085Z,2.60
2023-01-01T11:09:04.680Z,2.00
2023-01-01T11:14:19.550Z,2.00
2023-01-01T11:19:24.985Z,2.37
2023-01-01T11:24:30.893Z,2.27
2023-01-01T11:29:34.510Z,2.43
2023-01-01T11:34:39.789Z,2.23
2023-01-01T11:39:45.981Z,4.37
2023-01-01T11:44:50.825Z,1.77
2023-01-01T11:49:59.940Z,1.90
2023-01-01T11:55:11.609Z,2.10
2023-01-01T12:00:17.329Z,1.77
2023-01-01T12:05:22.946Z,1.90
2023-01-01T12:10:30.508Z,2.03
2023-01-01T12:15:37.056Z,2.23
2023-01-01T12:20:41.942Z,2.53
2023-01-01T12:25:48.224Z,1.90
2023-01-01T12:30:57.214Z,2.40
2023-01-01T12:36:05.189Z,1.97
2023-01-01T12:41:13.647Z,2.20
2023-01-01T12:46:26.302Z,2.47
2023-01-01T12:51:33.566Z,3.80
2023-01-01T12:56:41.509Z,1.70
2023-01-01T13:01:45.574Z,1.90
2023-01-01T13:06:51.059Z,2.60
2023-01-01T13:11:56.998Z,2.20
2023-01-01T13:17:00.527Z,2.33
2023-01-01T13:22:18.928Z,2.13
2023-01-01T13:27:50.346Z,2.00
2023-01-01T13:33:08.589Z,2.27
2023-01-01T13:38:27.016Z,6.27
2023-01-01T13:43:34.632Z,1.63
2023-01-01T13:49:01.653Z,3.37
2023-01-01T13:54:24.543Z,2.57
2023-01-01T13:59:42.733Z,2.70
2023-01-01T14:04:49.100Z,2.73
2023-01-01T14:09:53.049Z,2.83
2023-01-01T14:14:57.882Z,2.73
2023-01-01T14:20:01.485Z,2.43
2023-01-01T14:25:09.420Z,2.67
2023-01-01T14:30:32.497Z,2.30
2023-01-01T14:35:35.901Z,2.00
2023-01-01T14:40:39.344Z,2.63
2023-01-01T14:45:45.233Z,3.40
2023-01-01T14:50:50.984Z,4.57
2023-01-01T14:55:54.640Z,3.23
2023-01-01T15:06:30.885Z,2.90
2023-01-01T15:11:34.681Z,2.80
2023-01-01T15:16:40.580Z,2.70
2023-01-01T15:21:45.682Z,3.23
2023-01-01T15:26:51.716Z,3.00
2023-01-01T15:31:55.861Z,2.27
2023-01-01T15:37:09.582Z,2.20
2023-01-01T15:42:23.344Z,2.33
2023-01-01T15:47:26.924Z,3.50
2023-01-01T15:52:32.520Z,3.03
2023-01-01T15:57:36.335Z,2.70
2023-01-01T16:02:40.071Z,3.83
2023-01-01T16:07:45.160Z,3.80
2023-01-01T16:12:48.523Z,2.97
2023-01-01T16:17:52.124Z,2.77
2023-01-01T16:22:56.879Z,2.93
2023-01-01T16:28:00.407Z,3.27
2023-01-01T16:33:04.179Z,2.83
2023-01-01T16:38:09.227Z,3.40
2023-01-01T16:43:16.603Z,4.10
2023-01-01T16:48:20.426Z,4.37
2023-01-01T16:53:25.722Z,3.07
2023-01-01T17:03:52.474Z,3.30
2023-01-01T17:08:57.351Z,3.70
2023-01-01T17:14:02.622Z,3.40
2023-01-01T17:19:21.647Z,3.17
2023-01-01T17:24:26.452Z,3.80
2023-01-01T17:29:29.973Z,4.10
2023-01-01T17:34:33.283Z,2.93
2023-01-01T17:39:38.498Z,3.13
2023-01-01T17:44:44.292Z,2.70
2023-01-01T17:49:52.124Z,3.00
2023-01-01T17:54:57.536Z,2.80
2023-01-01T18:00:03.151Z,3.80
2023-01-01T18:05:16.721Z,3.10
2023-01-01T18:10:21.784Z,3.00
2023-01-01T18:15:25.759Z,4.00
2023-01-01T18:20:29.333Z,3.20
2023-01-01T18:25:35.592Z,3.33
2023-01-01T18:30:39.372Z,3.10
2023-01-01T18:35:43.024Z,2.60
2023-01-01T18:40:52.209Z,2.53
2023-01-01T18:45:56.775Z,2.90
2023-01-01T18:51:00.423Z,2.97
2023-01-01T18:56:11.294Z,3.00
2023-01-01T19:01:16.932Z,2.60
2023-01-01T19:06:27.549Z,3.10
2023-01-01T19:11:33.212Z,3.17
2023-01-01T19:16:38.002Z,2.80
2023-01-01T19:21:46.483Z,2.67
2023-01-01T19:26:57.700Z,1.97
2023-01-01T19:32:04.213Z,2.50
2023-01-01T19:37:08.410Z,2.27
2023-01-01T19:42:17.713Z,2.60
2023-01-01T19:47:21.454Z,3.30
2023-01-01T19:52:25.395Z,2.83
2023-01-01T19:57:30.646Z,2.50
2023-01-01T20:02:46.090Z,2.70
2023-01-01T20:07:51.156Z,2.50
2023-01-01T20:12:56.201Z,2.17
2023-01-01T20:18:00.276Z,3.17
2023-01-01T20:23:05.816Z,2.50
2023-01-01T20:28:29.065Z,2.57
2023-01-01T20:33:33.013Z,2.47
2023-01-01T20:38:40.194Z,3.37
2023-01-01T20:43:45.675Z,2.47
2023-01-01T20:48:49.777Z,2.40
2023-01-01T20:53:56.530Z,2.53
2023-01-01T20:59:17.944Z,2.70
2023-01-01T21:04:27.029Z,2.17
2023-01-01T21:09:30.888Z,2.20
2023-01-01T21:14:36.455Z,2.50
2023-01-01T21:19:40.717Z,2.67
2023-01-01T21:24:51.557Z,1.90
2023-01-01T21:29:59.113Z,1.90
2023-01-01T21:35:03.619Z,1.90
2023-01-01T21:40:26.392Z,2.50
2023-01-01T21:45:33.938Z,2.80
2023-01-01T21:50:41.662Z,3.27
2023-01-01T21:55:56.777Z,2.00
2023-01-01T22:01:02.167Z,2.50
2023-01-01T22:06:11.512Z,2.20
2023-01-01T22:11:21.161Z,2.40
2023-01-01T22:16:29.333Z,2.10
2023-01-01T22:21:35.195Z,1.23
2023-01-01T22:26:39.226Z,1.73
2023-01-01T22:31:49.338Z,1.93
2023-01-01T22:36:54.589Z,1.93
2023-01-01T22:41:58.895Z,2.10
2023-01-01T22:47:04.336Z,2.70
2023-01-01T22:52:10.269Z,2.13
2023-01-01T22:57:16.126Z,1.80
2023-01-01T23:02:25.773Z,2.33
2023-01-01T23:07:30.262Z,2.13
2023-01-01T23:12:35.655Z,2.27
2023-01-01T23:17:42.998Z,1.93
2023-01-01T23:23:14.392Z,1.93
2023-01-01T23:28:36.471Z,2.50
2023-01-01T23:33:42.791Z,2.60
2023-01-01T23:38:47.764Z,2.23
2023-01-01T23:43:55.160Z,2.30
2023-01-01T23:49:04.712Z,1.47
2023-01-01T23:54:13.844Z,1.70
2023-01-01T23:59:19.216Z,1.90
